sensor_id;sensor_type;location;lat;lon;timestamp;pressure;altitude;pressure_sealevel;temperature;humidity
41862;BME280;27537;57.134;-2.136;2023-02-04T00:01:58;102209.16;;;8.79;100.00
41862;BME280;27537;57.134;-2.136;2023-02-04T00:04:25;102203.94;;;8.82;100.00
41862;BME280;27537;57.134;-2.136;2023-02-04T00:06:52;102209.09;;;8.87;100.00
41862;BME280;27537;57.134;-2.136;2023-02-04T00:09:18;102212.59;;;8.87;100.00
41862;BME280;27537;57.134;-2.136;2023-02-04T00:11:45;102207.38;;;8.86;100.00
41862;BME280;27537;57.134;-2.136;2023-02-04T00:14:11;102202.16;;;8.87;100.00
41862;BME280;27537;57.134;-2.136;2023-02-04T00:16:38;102200.41;;;8.88;100.00
41862;BME280;27537;57.134;-2.136;2023-02-04T00:19:04;102202.16;;;8.87;100.00
41862;BME280;27537;57.134;-2.136;2023-02-04T00:21:31;102197.78;;;8.89;100.00
41862;BME280;27537;57.134;-2.136;2023-02-04T00:23:57;102200.47;;;8.79;100.00
41862;BME280;27537;57.134;-2.136;2023-02-04T00:26:24;102194.41;;;8.69;100.00
41862;BME280;27537;57.134;-2.136;2023-02-04T00:28:51;102201.38;;;8.71;100.00
41862;BME280;27537;57.134;-2.136;2023-02-04T00:31:17;102206.56;;;8.74;100.00
41862;BME280;27537;57.134;-2.136;2023-02-04T00:33:44;102212.63;;;8.80;100.00
41862;BME280;27537;57.134;-2.136;2023-02-04T00:36:10;102216.09;;;8.85;100.00
41862;BME280;27537;57.134;-2.136;2023-02-04T00:38:37;102215.22;;;8.81;100.00
41862;BME280;27537;57.134;-2.136;2023-02-04T00:41:03;102204.78;;;8.81;100.00
41862;BME280;27537;57.134;-2.136;2023-02-04T00:43:31;102213.53;;;8.80;100.00
41862;BME280;27537;57.134;-2.136;2023-02-04T00:45:58;102215.22;;;8.83;100.00
41862;BME280;27537;57.134;-2.136;2023-02-04T00:48:24;102211.75;;;8.85;100.00
41862;BME280;27537;57.134;-2.136;2023-02-04T00:50:52;102209.97;;;8.89;100.00
41862;BME280;27537;57.134;-2.136;2023-02-04T00:53:19;102213.44;;;8.89;100.00
41862;BME280;27537;57.134;-2.136;2023-02-04T00:55:45;102213.44;;;8.91;100.00
41862;BME280;27537;57.134;-2.136;2023-02-04T00:58:12;102209.94;;;8.90;100.00
41862;BME280;27537;57.134;-2.136;2023-02-04T01:00:39;102212.59;;;8.87;100.00
41862;BME280;27537;57.134;-2.136;2023-02-04T01:03:05;102211.69;;;8.88;100.00
41862;BME280;27537;57.134;-2.136;2023-02-04T01:05:32;102214.31;;;8.91;100.00
41862;BME280;27537;57.134;-2.136;2023-02-04T01:07:58;102214.28;;;8.93;100.00
41862;BME280;27537;57.134;-2.136;2023-02-04T01:10:26;102208.16;;;8.97;100.00
41862;BME280;27537;57.134;-2.136;2023-02-04T01:12:54;102216.00;;;8.96;100.00
41862;BME280;27537;57.134;-2.136;2023-02-04T01:15:20;102219.47;;;8.99;100.00
41862;BME280;27537;57.134;-2.136;2023-02-04T01:17:50;102220.34;;;9.00;100.00
41862;BME280;27537;57.134;-2.136;2023-02-04T01:20:17;102224.69;;;8.99;100.00
41862;BME280;27537;57.134;-2.136;2023-02-04T01:22:43;102222.03;;;9.08;100.00
41862;BME280;27537;57.134;-2.136;2023-02-04T01:25:10;102222.88;;;9.12;100.00
41862;BME280;27537;57.134;-2.136;2023-02-04T01:27:37;102225.44;;;9.13;100.00
41862;BME280;27537;57.134;-2.136;2023-02-04T01:30:04;102233.31;;;9.12;100.00
41862;BME280;27537;57.134;-2.136;2023-02-04T01:32:31;102231.56;;;9.14;100.00
41862;BME280;27537;57.134;-2.136;2023-02-04T01:34:57;102232.41;;;9.16;100.00
41862;BME280;27537;57.134;-2.136;2023-02-04T01:37:24;102239.38;;;9.17;100.00
41862;BME280;27537;57.134;-2.136;2023-02-04T01:39:50;102237.63;;;9.16;100.00
41862;BME280;27537;57.134;-2.136;2023-02-04T01:42:17;102233.25;;;9.18;100.00
41862;BME280;27537;57.134;-2.136;2023-02-04T01:44:44;102233.25;;;9.18;100.00
41862;BME280;27537;57.134;-2.136;2023-02-04T01:47:11;102237.66;;;9.13;100.00
41862;BME280;27537;57.134;-2.136;2023-02-04T01:49:37;102231.56;;;9.14;100.00
41862;BME280;27537;57.134;-2.136;2023-02-04T01:52:04;102230.72;;;9.12;100.00
41862;BME280;27537;57.134;-2.136;2023-02-04T01:54:31;102234.16;;;9.14;100.00
41862;BME280;27537;57.134;-2.136;2023-02-04T01:56:58;102233.28;;;9.15;100.00
41862;BME280;27537;57.134;-2.136;2023-02-04T01:59:24;102237.66;;;9.13;100.00
41862;BME280;27537;57.134;-2.136;2023-02-04T02:01:52;102234.19;;;9.09;100.00
41862;BME280;27537;57.134;-2.136;2023-02-04T02:04:20;102239.41;;;9.11;100.00
41862;BME280;27537;57.134;-2.136;2023-02-04T02:06:51;102235.94;;;9.09;100.00
41862;BME280;27537;57.134;-2.136;2023-02-04T02:09:19;102241.16;;;9.10;100.00
41862;BME280;27537;57.134;-2.136;2023-02-04T02:11:45;102240.31;;;9.08;100.00
41862;BME280;27537;57.134;-2.136;2023-02-04T02:14:12;102234.19;;;9.09;100.00
41862;BME280;27537;57.134;-2.136;2023-02-04T02:16:39;102234.19;;;9.08;100.00
41862;BME280;27537;57.134;-2.136;2023-02-04T02:19:06;102235.97;;;9.06;100.00
41862;BME280;27537;57.134;-2.136;2023-02-04T02:21:37;102237.72;;;9.07;100.00
41862;BME280;27537;57.134;-2.136;2023-02-04T02:24:20;102233.34;;;9.09;100.00
41862;BME280;27537;57.134;-2.136;2023-02-04T02:26:49;102242.03;;;9.06;100.00
41862;BME280;27537;57.134;-2.136;2023-02-04T02:29:15;102232.50;;;9.02;100.00
41862;BME280;27537;57.134;-2.136;2023-02-04T02:31:42;102225.50;;;9.10;100.00
41862;BME280;27537;57.134;-2.136;2023-02-04T02:34:09;102222.91;;;9.07;100.00
41862;BME280;27537;57.134;-2.136;2023-02-04T02:36:35;102223.72;;;9.12;100.00
41862;BME280;27537;57.134;-2.136;2023-02-04T02:39:02;102221.97;;;9.15;100.00
41862;BME280;27537;57.134;-2.136;2023-02-04T02:41:29;102219.34;;;9.16;100.00
41862;BME280;27537;57.134;-2.136;2023-02-04T02:43:55;102221.13;;;9.08;100.00
41862;BME280;27537;57.134;-2.136;2023-02-04T02:46:22;102223.75;;;9.06;100.00
41862;BME280;27537;57.134;-2.136;2023-02-04T02:48:49;102215.81;;;9.19;100.00
41862;BME280;27537;57.134;-2.136;2023-02-04T02:51:15;102217.59;;;9.17;100.00
41862;BME280;27537;57.134;-2.136;2023-02-04T02:53:42;102216.66;;;9.22;100.00
41862;BME280;27537;57.134;-2.136;2023-02-04T02:56:09;102214.09;;;9.18;100.00
41862;BME280;27537;57.134;-2.136;2023-02-04T02:58:35;102210.56;;;9.25;100.00
41862;BME280;27537;57.134;-2.136;2023-02-04T03:01:06;102219.25;;;9.25;100.00
41862;BME280;27537;57.134;-2.136;2023-02-04T03:03:52;102214.94;;;9.24;100.00
41862;BME280;27537;57.134;-2.136;2023-02-04T03:06:19;102218.41;;;9.25;100.00
41862;BME280;27537;57.134;-2.136;2023-02-04T03:08:48;102219.25;;;9.25;100.00
41862;BME280;27537;57.134;-2.136;2023-02-04T03:11:16;102221.84;;;9.28;100.00
41862;BME280;27537;57.134;-2.136;2023-02-04T03:13:42;102220.97;;;9.29;100.00
41862;BME280;27537;57.134;-2.136;2023-02-04T03:16:09;102229.72;;;9.24;100.00
41862;BME280;27537;57.134;-2.136;2023-02-04T03:18:36;102221.84;;;9.30;100.00
41862;BME280;27537;57.134;-2.136;2023-02-04T03:21:03;102226.16;;;9.32;100.00
41862;BME280;27537;57.134;-2.136;2023-02-04T03:23:32;102220.16;;;9.24;100.00
41862;BME280;27537;57.134;-2.136;2023-02-04T03:25:59;102223.63;;;9.28;100.00
41862;BME280;27537;57.134;-2.136;2023-02-04T03:28:26;102222.72;;;9.30;100.00
41862;BME280;27537;57.134;-2.136;2023-02-04T03:30:52;102224.38;;;9.41;100.00
41862;BME280;27537;57.134;-2.136;2023-02-04T03:33:25;102222.63;;;9.41;100.00
41862;BME280;27537;57.134;-2.136;2023-02-04T03:35:54;102217.44;;;9.37;100.00
41862;BME280;27537;57.134;-2.136;2023-02-04T03:38:20;102223.53;;;9.37;100.00
41862;BME280;27537;57.134;-2.136;2023-02-04T03:40:47;102219.22;;;9.33;100.00
41862;BME280;27537;57.134;-2.136;2023-02-04T03:43:13;102213.94;;;9.36;100.00
41862;BME280;27537;57.134;-2.136;2023-02-04T03:45:40;102197.31;;;9.42;100.00
41862;BME280;27537;57.134;-2.136;2023-02-04T03:48:11;102201.72;;;9.38;100.00
41862;BME280;27537;57.134;-2.136;2023-02-04T03:50:37;102216.53;;;9.38;100.00
41862;BME280;27537;57.134;-2.136;2023-02-04T03:53:04;102223.53;;;9.37;100.00
41862;BME280;27537;57.134;-2.136;2023-02-04T03:55:30;102212.22;;;9.34;100.00
41862;BME280;27537;57.134;-2.136;2023-02-04T03:57:58;102220.94;;;9.32;100.00
41862;BME280;27537;57.134;-2.136;2023-02-04T04:00:24;102220.94;;;9.31;100.00
41862;BME280;27537;57.134;-2.136;2023-02-04T04:02:51;102214.84;;;9.34;100.00
41862;BME280;27537;57.134;-2.136;2023-02-04T04:05:18;102219.25;;;9.30;100.00
41862;BME280;27537;57.134;-2.136;2023-02-04T04:07:44;102225.31;;;9.32;100.00
41862;BME280;27537;57.134;-2.136;2023-02-04T04:10:11;102233.16;;;9.32;100.00
41862;BME280;27537;57.134;-2.136;2023-02-04T04:12:37;102220.94;;;9.34;100.00
41862;BME280;27537;57.134;-2.136;2023-02-04T04:15:04;102220.09;;;9.32;100.00
41862;BME280;27537;57.134;-2.136;2023-02-04T04:17:31;102222.72;;;9.27;100.00
41862;BME280;27537;57.134;-2.136;2023-02-04T04:19:57;102223.56;;;9.29;100.00
41862;BME280;27537;57.134;-2.136;2023-02-04T04:22:24;102222.69;;;9.34;100.00
41862;BME280;27537;57.134;-2.136;2023-02-04T04:24:51;102215.72;;;9.29;100.00
41862;BME280;27537;57.134;-2.136;2023-02-04T04:27:17;102216.63;;;9.31;100.00
41862;BME280;27537;57.134;-2.136;2023-02-04T04:29:44;102217.47;;;9.34;100.00
41862;BME280;27537;57.134;-2.136;2023-02-04T04:32:10;102220.09;;;9.32;100.00
41862;BME280;27537;57.134;-2.136;2023-02-04T04:34:37;102218.31;;;9.34;100.00
41862;BME280;27537;57.134;-2.136;2023-02-04T04:37:03;102214.00;;;9.31;100.00
41862;BME280;27537;57.134;-2.136;2023-02-04T04:39:30;102218.38;;;9.28;100.00
41862;BME280;27537;57.134;-2.136;2023-02-04T04:41:57;102214.00;;;9.30;100.00
41862;BME280;27537;57.134;-2.136;2023-02-04T04:44:23;102220.09;;;9.30;100.00
41862;BME280;27537;57.134;-2.136;2023-02-04T04:46:50;102217.47;;;9.34;100.00
41862;BME280;27537;57.134;-2.136;2023-02-04T04:49:17;102220.91;;;9.36;100.00
41862;BME280;27537;57.134;-2.136;2023-02-04T04:51:43;102223.53;;;9.37;100.00
41862;BME280;27537;57.134;-2.136;2023-02-04T04:54:10;102227.06;;;9.33;100.00
41862;BME280;27537;57.134;-2.136;2023-02-04T04:56:36;102222.72;;;9.30;100.00
41862;BME280;27537;57.134;-2.136;2023-02-04T04:59:03;102227.06;;;9.31;100.00
41862;BME280;27537;57.134;-2.136;2023-02-04T05:01:29;102229.72;;;9.27;100.00
41862;BME280;27537;57.134;-2.136;2023-02-04T05:03:56;102225.34;;;9.26;100.00
41862;BME280;27537;57.134;-2.136;2023-02-04T05:06:23;102223.63;;;9.26;100.00
41862;BME280;27537;57.134;-2.136;2023-02-04T05:08:51;102223.63;;;9.25;100.00
41862;BME280;27537;57.134;-2.136;2023-02-04T05:11:17;102216.63;;;9.27;100.00
41862;BME280;27537;57.134;-2.136;2023-02-04T05:13:44;102224.44;;;9.31;100.00
41862;BME280;27537;57.134;-2.136;2023-02-04T05:16:10;102220.09;;;9.29;100.00
41862;BME280;27537;57.134;-2.136;2023-02-04T05:18:38;102228.78;;;9.32;100.00
41862;BME280;27537;57.134;-2.136;2023-02-04T05:21:05;102230.56;;;9.30;100.00
41862;BME280;27537;57.134;-2.136;2023-02-04T05:23:32;102228.00;;;9.24;100.00
41862;BME280;27537;57.134;-2.136;2023-02-04T05:25:59;102226.19;;;9.29;100.00
41862;BME280;27537;57.134;-2.136;2023-02-04T05:28:25;102219.25;;;9.30;100.00
41862;BME280;27537;57.134;-2.136;2023-02-04T05:30:52;102225.34;;;9.26;100.00
41862;BME280;27537;57.134;-2.136;2023-02-04T05:33:19;102225.31;;;9.29;100.00
41862;BME280;27537;57.134;-2.136;2023-02-04T05:35:45;102220.09;;;9.29;100.00
41862;BME280;27537;57.134;-2.136;2023-02-04T05:38:14;102222.69;;;9.32;100.00
41862;BME280;27537;57.134;-2.136;2023-02-04T05:40:41;102227.06;;;9.33;100.00
41862;BME280;27537;57.134;-2.136;2023-02-04T05:43:08;102221.84;;;9.31;100.00
41862;BME280;27537;57.134;-2.136;2023-02-04T05:45:34;102221.84;;;9.30;100.00
41862;BME280;27537;57.134;-2.136;2023-02-04T05:48:01;102227.97;;;9.26;100.00
41862;BME280;27537;57.134;-2.136;2023-02-04T05:50:27;102227.97;;;9.26;100.00
41862;BME280;27537;57.134;-2.136;2023-02-04T05:52:54;102227.97;;;9.26;100.00
41862;BME280;27537;57.134;-2.136;2023-02-04T05:55:21;102224.50;;;9.25;100.00
41862;BME280;27537;57.134;-2.136;2023-02-04T05:57:48;102224.50;;;9.25;100.00
41862;BME280;27537;57.134;-2.136;2023-02-04T06:00:14;102214.88;;;9.26;100.00
41862;BME280;27537;57.134;-2.136;2023-02-04T06:02:41;102217.50;;;9.27;100.00
41862;BME280;27537;57.134;-2.136;2023-02-04T06:05:07;102217.53;;;9.24;100.00
41862;BME280;27537;57.134;-2.136;2023-02-04T06:07:34;102226.25;;;9.23;100.00
41862;BME280;27537;57.134;-2.136;2023-02-04T06:10:01;102230.63;;;9.21;100.00
41862;BME280;27537;57.134;-2.136;2023-02-04T06:12:27;102234.94;;;9.24;100.00
41862;BME280;27537;57.134;-2.136;2023-02-04T06:14:54;102238.47;;;9.23;100.00
41862;BME280;27537;57.134;-2.136;2023-02-04T06:17:21;102237.63;;;9.16;100.00
41862;BME280;27537;57.134;-2.136;2023-02-04T06:19:47;102229.72;;;9.24;100.00
41862;BME280;27537;57.134;-2.136;2023-02-04T06:22:14;102223.63;;;9.23;100.00
41862;BME280;27537;57.134;-2.136;2023-02-04T06:24:40;102227.09;;;9.28;100.00
41862;BME280;27537;57.134;-2.136;2023-02-04T06:27:07;102230.53;;;9.32;100.00
41862;BME280;27537;57.134;-2.136;2023-02-04T06:29:34;102234.03;;;9.31;100.00
41862;BME280;27537;57.134;-2.136;2023-02-04T06:32:00;102233.16;;;9.32;100.00
41862;BME280;27537;57.134;-2.136;2023-02-04T06:34:27;102229.63;;;9.35;100.00
41862;BME280;27537;57.134;-2.136;2023-02-04T06:36:53;102228.78;;;9.32;100.00
41862;BME280;27537;57.134;-2.136;2023-02-04T06:39:20;102227.00;;;9.36;100.00
41862;BME280;27537;57.134;-2.136;2023-02-04T06:41:47;102232.25;;;9.36;100.00
41862;BME280;27537;57.134;-2.136;2023-02-04T06:44:13;102232.28;;;9.31;100.00
41862;BME280;27537;57.134;-2.136;2023-02-04T06:46:40;102231.41;;;9.29;100.00
41862;BME280;27537;57.134;-2.136;2023-02-04T06:49:06;102226.16;;;9.34;100.00
41862;BME280;27537;57.134;-2.136;2023-02-04T06:51:33;102231.47;;;9.28;100.00
41862;BME280;27537;57.134;-2.136;2023-02-04T06:53:59;102227.91;;;9.35;100.00
41862;BME280;27537;57.134;-2.136;2023-02-04T06:56:26;102222.72;;;9.29;100.00
41862;BME280;27537;57.134;-2.136;2023-02-04T06:58:54;102219.16;;;9.38;100.00
41862;BME280;27537;57.134;-2.136;2023-02-04T07:01:21;102212.25;;;9.32;100.00
41862;BME280;27537;57.134;-2.136;2023-02-04T07:03:47;102222.69;;;9.34;100.00
41862;BME280;27537;57.134;-2.136;2023-02-04T07:06:14;102225.22;;;9.41;100.00
41862;BME280;27537;57.134;-2.136;2023-02-04T07:08:41;102233.06;;;9.43;100.00
41862;BME280;27537;57.134;-2.136;2023-02-04T07:11:07;102230.44;;;9.43;100.00
41862;BME280;27537;57.134;-2.136;2023-02-04T07:13:34;102230.47;;;9.38;100.00
41862;BME280;27537;57.134;-2.136;2023-02-04T07:16:00;102225.28;;;9.37;100.00
41862;BME280;27537;57.134;-2.136;2023-02-04T07:18:27;102226.06;;;9.43;100.00
41862;BME280;27537;57.134;-2.136;2023-02-04T07:20:54;102226.97;;;9.44;100.00
41862;BME280;27537;57.134;-2.136;2023-02-04T07:23:20;102228.69;;;9.43;100.00
41862;BME280;27537;57.134;-2.136;2023-02-04T07:25:47;102233.06;;;9.44;100.00
41862;BME280;27537;57.134;-2.136;2023-02-04T07:28:14;102236.53;;;9.45;100.00
41862;BME280;27537;57.134;-2.136;2023-02-04T07:30:41;102238.28;;;9.41;100.00
41862;BME280;27537;57.134;-2.136;2023-02-04T07:33:07;102228.75;;;9.36;100.00
41862;BME280;27537;57.134;-2.136;2023-02-04T07:35:34;102239.19;;;9.39;100.00
41862;BME280;27537;57.134;-2.136;2023-02-04T07:38:00;102241.78;;;9.42;100.00
41862;BME280;27537;57.134;-2.136;2023-02-04T07:40:27;102227.91;;;9.34;100.00
41862;BME280;27537;57.134;-2.136;2023-02-04T07:42:54;102233.16;;;9.32;100.00
41862;BME280;27537;57.134;-2.136;2023-02-04T07:45:20;102230.56;;;9.30;100.00
41862;BME280;27537;57.134;-2.136;2023-02-04T07:47:47;102226.22;;;9.28;100.00
41862;BME280;27537;57.134;-2.136;2023-02-04T07:50:14;102225.41;;;9.21;100.00
41862;BME280;27537;57.134;-2.136;2023-02-04T07:52:41;102226.25;;;9.22;100.00
41862;BME280;27537;57.134;-2.136;2023-02-04T07:55:08;102218.44;;;9.20;100.00
41862;BME280;27537;57.134;-2.136;2023-02-04T07:57:34;102227.97;;;9.26;100.00
41862;BME280;27537;57.134;-2.136;2023-02-04T08:00:01;102214.97;;;9.15;100.00
41862;BME280;27537;57.134;-2.136;2023-02-04T08:02:28;102219.34;;;9.16;100.00
41862;BME280;27537;57.134;-2.136;2023-02-04T08:04:54;102213.28;;;9.09;100.00
41862;BME280;27537;57.134;-2.136;2023-02-04T08:07:21;102209.75;;;9.17;100.00
41862;BME280;27537;57.134;-2.136;2023-02-04T08:09:47;102201.03;;;9.18;100.00
41862;BME280;27537;57.134;-2.136;2023-02-04T08:12:14;102210.66;;;9.16;100.00
41862;BME280;27537;57.134;-2.136;2023-02-04T08:14:41;102205.44;;;9.12;100.00
41862;BME280;27537;57.134;-2.136;2023-02-04T08:17:07;102207.19;;;9.12;100.00
41862;BME280;27537;57.134;-2.136;2023-02-04T08:19:34;102208.97;;;9.07;100.00
41862;BME280;27537;57.134;-2.136;2023-02-04T08:22:00;102209.75;;;9.15;100.00
41862;BME280;27537;57.134;-2.136;2023-02-04T08:24:27;102209.72;;;9.23;100.00
41862;BME280;27537;57.134;-2.136;2023-02-04T08:26:53;102201.03;;;9.19;100.00
41862;BME280;27537;57.134;-2.136;2023-02-04T08:29:20;102191.47;;;9.13;100.00
41862;BME280;27537;57.134;-2.136;2023-02-04T08:31:47;102201.91;;;9.17;100.00
41862;BME280;27537;57.134;-2.136;2023-02-04T08:34:13;102201.97;;;9.09;100.00
41862;BME280;27537;57.134;-2.136;2023-02-04T08:36:40;102205.44;;;9.14;100.00
41862;BME280;27537;57.134;-2.136;2023-02-04T08:39:06;102203.59;;;9.24;100.00
41862;BME280;27537;57.134;-2.136;2023-02-04T08:41:33;102198.38;;;9.22;100.00
41862;BME280;27537;57.134;-2.136;2023-02-04T08:44:00;102200.94;;;9.31;100.00
41862;BME280;27537;57.134;-2.136;2023-02-04T08:46:26;102206.19;;;9.27;100.00
41862;BME280;27537;57.134;-2.136;2023-02-04T08:48:53;102195.69;;;9.33;100.00
41862;BME280;27537;57.134;-2.136;2023-02-04T08:51:20;102195.63;;;9.36;100.00
41862;BME280;27537;57.134;-2.136;2023-02-04T08:53:46;102195.59;;;9.42;100.00
41862;BME280;27537;57.134;-2.136;2023-02-04T08:56:13;102183.47;;;9.35;100.00
41862;BME280;27537;57.134;-2.136;2023-02-04T08:58:45;102178.25;;;9.32;100.00
41862;BME280;27537;57.134;-2.136;2023-02-04T09:01:13;102175.56;;;9.41;100.00
41862;BME280;27537;57.134;-2.136;2023-02-04T09:03:40;102177.25;;;9.45;100.00
41862;BME280;27537;57.134;-2.136;2023-02-04T09:06:07;102179.84;;;9.47;100.00
41862;BME280;27537;57.134;-2.136;2023-02-04T09:08:34;102179.00;;;9.45;100.00
41862;BME280;27537;57.134;-2.136;2023-02-04T09:11:00;102172.94;;;9.43;100.00
41862;BME280;27537;57.134;-2.136;2023-02-04T09:13:27;102171.25;;;9.34;100.00
41862;BME280;27537;57.134;-2.136;2023-02-04T09:15:54;102176.41;;;9.42;100.00
41862;BME280;27537;57.134;-2.136;2023-02-04T09:18:20;102171.25;;;9.37;100.00
41862;BME280;27537;57.134;-2.136;2023-02-04T09:20:48;102169.47;;;9.39;100.00
41862;BME280;27537;57.134;-2.136;2023-02-04T09:23:14;102171.13;;;9.51;100.00
41862;BME280;27537;57.134;-2.136;2023-02-04T09:25:42;102177.25;;;9.45;100.00
41862;BME280;27537;57.134;-2.136;2023-02-04T09:28:09;102173.72;;;9.53;100.00
41862;BME280;27537;57.134;-2.136;2023-02-04T09:30:37;102173.63;;;9.59;100.00
41862;BME280;27537;57.134;-2.136;2023-02-04T09:33:03;102174.47;;;9.61;100.00
41862;BME280;27537;57.134;-2.136;2023-02-04T09:35:30;102175.28;;;9.69;100.00
41862;BME280;27537;57.134;-2.136;2023-02-04T09:37:57;102184.94;;;9.61;100.00
41862;BME280;27537;57.134;-2.136;2023-02-04T09:40:23;102198.81;;;9.71;100.00
41862;BME280;27537;57.134;-2.136;2023-02-04T09:42:52;102202.28;;;9.73;100.00
41862;BME280;27537;57.134;-2.136;2023-02-04T09:45:23;102199.69;;;9.69;100.00
41862;BME280;27537;57.134;-2.136;2023-02-04T09:47:52;102203.00;;;9.85;100.00
41862;BME280;27537;57.134;-2.136;2023-02-04T09:50:19;102198.56;;;9.91;100.00
41862;BME280;27537;57.134;-2.136;2023-02-04T09:52:47;102196.91;;;9.83;100.00
41862;BME280;27537;57.134;-2.136;2023-02-04T09:55:15;102200.31;;;9.92;100.00
41862;BME280;27537;57.134;-2.136;2023-02-04T09:57:42;102201.31;;;9.81;100.00
41862;BME280;27537;57.134;-2.136;2023-02-04T10:02:42;102201.06;;;10.00;100.00
41862;BME280;27537;57.134;-2.136;2023-02-04T10:05:29;102195.72;;;10.11;100.00
41862;BME280;27537;57.134;-2.136;2023-02-04T10:07:57;102200.13;;;10.05;100.00
41862;BME280;27537;57.134;-2.136;2023-02-04T10:10:24;102189.84;;;9.92;100.00
41862;BME280;27537;57.134;-2.136;2023-02-04T10:12:54;102198.34;;;10.09;100.00
41862;BME280;27537;57.134;-2.136;2023-02-04T10:15:21;102195.84;;;10.01;100.00
41862;BME280;27537;57.134;-2.136;2023-02-04T10:17:49;102184.56;;;9.95;100.00
41862;BME280;27537;57.134;-2.136;2023-02-04T10:20:19;102180.97;;;10.03;100.00
41862;BME280;27537;57.134;-2.136;2023-02-04T10:22:46;102181.91;;;9.99;100.00
41862;BME280;27537;57.134;-2.136;2023-02-04T10:25:16;102177.31;;;10.18;100.00
41862;BME280;27537;57.134;-2.136;2023-02-04T10:27:50;102178.19;;;10.17;100.00
41862;BME280;27537;57.134;-2.136;2023-02-04T10:30:22;102173.06;;;10.10;100.00
41862;BME280;27537;57.134;-2.136;2023-02-04T10:32:49;102179.19;;;10.05;100.00
41862;BME280;27537;57.134;-2.136;2023-02-04T10:35:16;102186.88;;;10.19;100.00
41862;BME280;27537;57.134;-2.136;2023-02-04T10:37:43;102190.41;;;10.17;100.00
41862;BME280;27537;57.134;-2.136;2023-02-04T10:40:29;102185.16;;;10.20;100.00
41862;BME280;27537;57.134;-2.136;2023-02-04T10:42:56;102192.84;;;10.32;100.00
41862;BME280;27537;57.134;-2.136;2023-02-04T10:45:27;102184.13;;;10.33;100.00
41862;BME280;27537;57.134;-2.136;2023-02-04T10:47:55;102185.06;;;10.26;100.00
41862;BME280;27537;57.134;-2.136;2023-02-04T10:50:23;102177.09;;;10.35;100.00
41862;BME280;27537;57.134;-2.136;2023-02-04T10:52:51;102179.00;;;10.21;100.00
41862;BME280;27537;57.134;-2.136;2023-02-04T10:55:21;102182.94;;;10.56;100.00
41862;BME280;27537;57.134;-2.136;2023-02-04T10:57:50;102186.28;;;10.66;100.00
41862;BME280;27537;57.134;-2.136;2023-02-04T11:00:23;102188.72;;;10.78;100.00
41862;BME280;27537;57.134;-2.136;2023-02-04T11:03:01;102175.81;;;10.64;100.00
41862;BME280;27537;57.134;-2.136;2023-02-04T11:05:30;102179.38;;;10.60;100.00
41862;BME280;27537;57.134;-2.136;2023-02-04T11:07:57;102166.25;;;10.63;100.00
41862;BME280;27537;57.134;-2.136;2023-02-04T11:10:26;102170.56;;;10.66;100.00
41862;BME280;27537;57.134;-2.136;2023-02-04T11:18:07;102174.34;;;10.46;100.00
41862;BME280;27537;57.134;-2.136;2023-02-04T11:20:34;102167.56;;;10.28;100.00
41862;BME280;27537;57.134;-2.136;2023-02-04T11:26:00;102174.34;;;10.46;100.00
41862;BME280;27537;57.134;-2.136;2023-02-04T11:28:26;102171.88;;;10.34;100.00
41862;BME280;27537;57.134;-2.136;2023-02-04T11:31:02;102172.00;;;10.23;100.00
41862;BME280;27537;57.134;-2.136;2023-02-04T11:33:39;102168.34;;;10.39;100.00
41862;BME280;27537;57.134;-2.136;2023-02-04T11:36:07;102165.56;;;10.52;100.00
41862;BME280;27537;57.134;-2.136;2023-02-04T11:38:34;102174.47;;;10.37;100.00
41862;BME280;27537;57.134;-2.136;2023-02-04T11:41:01;102166.66;;;10.34;100.00
41862;BME280;27537;57.134;-2.136;2023-02-04T11:43:31;102159.84;;;10.20;100.00
41862;BME280;27537;57.134;-2.136;2023-02-04T11:46:02;102162.38;;;10.25;100.00
41862;BME280;27537;57.134;-2.136;2023-02-04T11:48:30;102146.63;;;10.28;100.00
41862;BME280;27537;57.134;-2.136;2023-02-04T11:50:58;102150.25;;;10.18;100.00
41862;BME280;27537;57.134;-2.136;2023-02-04T11:53:29;102154.97;;;9.91;100.00
41862;BME280;27537;57.134;-2.136;2023-02-04T11:55:56;102153.09;;;10.01;100.00
41862;BME280;27537;57.134;-2.136;2023-02-04T11:58:23;102154.69;;;10.13;100.00
41862;BME280;27537;57.134;-2.136;2023-02-04T12:00:51;102155.69;;;10.04;100.00
41862;BME280;27537;57.134;-2.136;2023-02-04T12:05:47;102148.66;;;10.07;100.00
41862;BME280;27537;57.134;-2.136;2023-02-04T12:11:08;102139.94;;;10.07;100.00
41862;BME280;27537;57.134;-2.136;2023-02-04T12:13:46;102135.59;;;10.07;100.00
41862;BME280;27537;57.134;-2.136;2023-02-04T12:16:13;102132.03;;;10.10;100.00
41862;BME280;27537;57.134;-2.136;2023-02-04T12:18:40;102122.44;;;10.11;100.00
41862;BME280;27537;57.134;-2.136;2023-02-04T12:21:06;102125.19;;;10.00;100.00
41862;BME280;27537;57.134;-2.136;2023-02-04T12:23:33;102118.25;;;9.99;100.00
41862;BME280;27537;57.134;-2.136;2023-02-04T12:26:00;102114.75;;;9.98;100.00
41862;BME280;27537;57.134;-2.136;2023-02-04T12:28:26;102106.31;;;9.78;100.00
41862;BME280;27537;57.134;-2.136;2023-02-04T12:30:54;102102.06;;;9.67;100.00
41862;BME280;27537;57.134;-2.136;2023-02-04T12:33:21;102098.63;;;9.64;100.00
41862;BME280;27537;57.134;-2.136;2023-02-04T12:35:48;102092.50;;;9.65;100.00
41862;BME280;27537;57.134;-2.136;2023-02-04T12:38:14;102087.97;;;9.79;100.00
41862;BME280;27537;57.134;-2.136;2023-02-04T12:40:41;102092.25;;;9.85;100.00
41862;BME280;27537;57.134;-2.136;2023-02-04T12:43:08;102090.66;;;9.72;100.00
41862;BME280;27537;57.134;-2.136;2023-02-04T12:45:34;102101.91;;;9.81;100.00
41862;BME280;27537;57.134;-2.136;2023-02-04T12:48:01;102094.94;;;9.77;100.00
41862;BME280;27537;57.134;-2.136;2023-02-04T12:50:28;102088.28;;;9.53;100.00
41862;BME280;27537;57.134;-2.136;2023-02-04T12:52:55;102087.31;;;9.63;100.00
41862;BME280;27537;57.134;-2.136;2023-02-04T12:55:23;102082.09;;;9.60;100.00